sensor_id;sensor_type;location;lat;lon;timestamp;P1;durP1;ratioP1;P2;durP2;ratioP2
46158;SDS011;31888;44.512;26.104;2023-07-22T00:01:45;18.40;;;7.60;;
46158;SDS011;31888;44.512;26.104;2023-07-22T00:04:09;13.98;;;6.63;;
46158;SDS011;31888;44.512;26.104;2023-07-22T00:06:35;13.05;;;7.78;;
46158;SDS011;31888;44.512;26.104;2023-07-22T00:08:59;12.20;;;6.80;;
46158;SDS011;31888;44.512;26.104;2023-07-22T00:11:22;10.70;;;6.60;;
46158;SDS011;31888;44.512;26.104;2023-07-22T00:13:46;10.95;;;7.25;;
46158;SDS011;31888;44.512;26.104;2023-07-22T00:16:10;12.05;;;7.15;;
46158;SDS011;31888;44.512;26.104;2023-07-22T00:18:34;14.40;;;7.15;;
46158;SDS011;31888;44.512;26.104;2023-07-22T00:20:58;11.85;;;6.55;;
46158;SDS011;31888;44.512;26.104;2023-07-22T00:23:23;46.95;;;7.95;;
46158;SDS011;31888;44.512;26.104;2023-07-22T00:25:47;45.17;;;10.00;;
46158;SDS011;31888;44.512;26.104;2023-07-22T00:28:11;36.30;;;9.13;;
46158;SDS011;31888;44.512;26.104;2023-07-22T00:30:35;22.83;;;7.10;;
46158;SDS011;31888;44.512;26.104;2023-07-22T00:32:59;12.88;;;7.10;;
46158;SDS011;31888;44.512;26.104;2023-07-22T00:35:23;52.33;;;10.48;;
46158;SDS011;31888;44.512;26.104;2023-07-22T00:37:47;22.10;;;7.00;;
46158;SDS011;31888;44.512;26.104;2023-07-22T00:40:12;23.08;;;6.68;;
46158;SDS011;31888;44.512;26.104;2023-07-22T00:42:37;18.58;;;7.05;;
46158;SDS011;31888;44.512;26.104;2023-07-22T00:45:01;22.20;;;5.78;;
46158;SDS011;31888;44.512;26.104;2023-07-22T00:47:26;19.13;;;5.13;;
46158;SDS011;31888;44.512;26.104;2023-07-22T00:49:50;8.63;;;3.88;;
46158;SDS011;31888;44.512;26.104;2023-07-22T00:52:15;17.30;;;4.25;;
46158;SDS011;31888;44.512;26.104;2023-07-22T00:54:39;16.88;;;3.85;;
46158;SDS011;31888;44.512;26.104;2023-07-22T00:57:06;8.48;;;2.60;;
46158;SDS011;31888;44.512;26.104;2023-07-22T00:59:30;6.88;;;2.63;;
46158;SDS011;31888;44.512;26.104;2023-07-22T01:01:54;9.07;;;2.67;;
46158;SDS011;31888;44.512;26.104;2023-07-22T01:04:19;6.53;;;1.60;;
46158;SDS011;31888;44.512;26.104;2023-07-22T01:06:44;4.20;;;1.92;;
46158;SDS011;31888;44.512;26.104;2023-07-22T01:09:08;10.43;;;2.20;;
46158;SDS011;31888;44.512;26.104;2023-07-22T01:11:32;11.15;;;2.15;;
46158;SDS011;31888;44.512;26.104;2023-07-22T01:13:58;7.57;;;2.30;;
46158;SDS011;31888;44.512;26.104;2023-07-22T01:16:22;9.25;;;2.13;;
46158;SDS011;31888;44.512;26.104;2023-07-22T01:18:46;5.32;;;1.52;;
46158;SDS011;31888;44.512;26.104;2023-07-22T01:21:10;3.33;;;1.50;;
46158;SDS011;31888;44.512;26.104;2023-07-22T01:23:38;7.25;;;1.60;;
46158;SDS011;31888;44.512;26.104;2023-07-22T01:26:02;8.02;;;1.60;;
46158;SDS011;31888;44.512;26.104;2023-07-22T01:28:26;5.78;;;2.72;;
46158;SDS011;31888;44.512;26.104;2023-07-22T01:30:50;5.75;;;1.77;;
46158;SDS011;31888;44.512;26.104;2023-07-22T01:33:16;3.97;;;1.65;;
46158;SDS011;31888;44.512;26.104;2023-07-22T01:35:40;3.78;;;1.85;;
46158;SDS011;31888;44.512;26.104;2023-07-22T01:38:04;5.88;;;1.67;;
46158;SDS011;31888;44.512;26.104;2023-07-22T01:40:31;5.18;;;2.45;;
46158;SDS011;31888;44.512;26.104;2023-07-22T01:42:55;7.28;;;2.65;;
46158;SDS011;31888;44.512;26.104;2023-07-22T01:45:19;6.43;;;2.10;;
46158;SDS011;31888;44.512;26.104;2023-07-22T01:47:43;5.65;;;2.30;;
46158;SDS011;31888;44.512;26.104;2023-07-22T01:50:07;5.28;;;1.60;;
46158;SDS011;31888;44.512;26.104;2023-07-22T01:52:34;6.22;;;1.92;;
46158;SDS011;31888;44.512;26.104;2023-07-22T01:54:58;7.30;;;1.83;;
46158;SDS011;31888;44.512;26.104;2023-07-22T01:57:24;3.67;;;1.92;;
46158;SDS011;31888;44.512;26.104;2023-07-22T01:59:47;4.50;;;1.65;;
46158;SDS011;31888;44.512;26.104;2023-07-22T02:02:11;6.03;;;2.28;;
46158;SDS011;31888;44.512;26.104;2023-07-22T02:04:35;4.40;;;1.77;;
46158;SDS011;31888;44.512;26.104;2023-07-22T02:06:59;6.13;;;2.40;;
46158;SDS011;31888;44.512;26.104;2023-07-22T02:09:23;4.30;;;2.60;;
46158;SDS011;31888;44.512;26.104;2023-07-22T02:11:47;6.55;;;2.55;;
46158;SDS011;31888;44.512;26.104;2023-07-22T02:14:12;4.43;;;2.20;;
46158;SDS011;31888;44.512;26.104;2023-07-22T02:16:36;4.15;;;2.08;;
46158;SDS011;31888;44.512;26.104;2023-07-22T02:19:00;6.18;;;2.03;;
46158;SDS011;31888;44.512;26.104;2023-07-22T02:21:30;4.30;;;2.17;;
46158;SDS011;31888;44.512;26.104;2023-07-22T02:23:54;6.43;;;2.20;;
46158;SDS011;31888;44.512;26.104;2023-07-22T02:26:18;7.28;;;2.55;;
46158;SDS011;31888;44.512;26.104;2023-07-22T02:28:42;6.78;;;2.47;;
46158;SDS011;31888;44.512;26.104;2023-07-22T02:31:08;7.10;;;2.30;;
46158;SDS011;31888;44.512;26.104;2023-07-22T02:33:32;4.15;;;2.08;;
46158;SDS011;31888;44.512;26.104;2023-07-22T02:35:56;6.78;;;2.35;;
46158;SDS011;31888;44.512;26.104;2023-07-22T02:38:20;7.68;;;2.28;;
46158;SDS011;31888;44.512;26.104;2023-07-22T02:40:44;4.13;;;1.95;;
46158;SDS011;31888;44.512;26.104;2023-07-22T02:43:08;3.65;;;2.10;;
46158;SDS011;31888;44.512;26.104;2023-07-22T02:45:32;6.45;;;2.20;;
46158;SDS011;31888;44.512;26.104;2023-07-22T02:47:58;5.35;;;2.45;;
46158;SDS011;31888;44.512;26.104;2023-07-22T02:50:22;9.57;;;2.65;;
46158;SDS011;31888;44.512;26.104;2023-07-22T02:52:46;6.68;;;2.45;;
46158;SDS011;31888;44.512;26.104;2023-07-22T02:55:10;6.82;;;2.53;;
46158;SDS011;31888;44.512;26.104;2023-07-22T02:57:35;4.63;;;2.30;;
46158;SDS011;31888;44.512;26.104;2023-07-22T02:59:59;8.23;;;3.17;;
46158;SDS011;31888;44.512;26.104;2023-07-22T03:02:28;7.50;;;2.53;;
46158;SDS011;31888;44.512;26.104;2023-07-22T03:04:53;4.53;;;2.10;;
46158;SDS011;31888;44.512;26.104;2023-07-22T03:07:18;8.63;;;2.30;;
46158;SDS011;31888;44.512;26.104;2023-07-22T03:09:42;8.93;;;2.63;;
46158;SDS011;31888;44.512;26.104;2023-07-22T03:12:06;7.13;;;2.10;;
46158;SDS011;31888;44.512;26.104;2023-07-22T03:14:31;5.60;;;2.28;;
46158;SDS011;31888;44.512;26.104;2023-07-22T03:16:58;9.27;;;3.30;;
46158;SDS011;31888;44.512;26.104;2023-07-22T03:19:22;5.43;;;2.45;;
46158;SDS011;31888;44.512;26.104;2023-07-22T03:21:47;8.80;;;2.75;;
46158;SDS011;31888;44.512;26.104;2023-07-22T03:24:11;7.60;;;2.78;;
46158;SDS011;31888;44.512;26.104;2023-07-22T03:26:34;7.05;;;2.30;;
46158;SDS011;31888;44.512;26.104;2023-07-22T03:28:58;6.15;;;2.10;;
46158;SDS011;31888;44.512;26.104;2023-07-22T03:31:22;5.13;;;2.55;;
46158;SDS011;31888;44.512;26.104;2023-07-22T03:33:46;7.53;;;2.60;;
46158;SDS011;31888;44.512;26.104;2023-07-22T03:36:11;6.35;;;2.50;;
46158;SDS011;31888;44.512;26.104;2023-07-22T03:38:37;7.43;;;2.55;;
46158;SDS011;31888;44.512;26.104;2023-07-22T03:41:01;7.60;;;2.75;;
46158;SDS011;31888;44.512;26.104;2023-07-22T03:43:25;6.07;;;2.58;;
46158;SDS011;31888;44.512;26.104;2023-07-22T03:45:49;6.97;;;2.58;;
46158;SDS011;31888;44.512;26.104;2023-07-22T03:48:13;5.50;;;2.70;;
46158;SDS011;31888;44.512;26.104;2023-07-22T03:50:37;5.15;;;2.75;;
46158;SDS011;31888;44.512;26.104;2023-07-22T03:53:01;8.85;;;2.75;;
46158;SDS011;31888;44.512;26.104;2023-07-22T03:55:26;7.82;;;3.13;;
46158;SDS011;31888;44.512;26.104;2023-07-22T03:57:50;7.47;;;2.70;;
46158;SDS011;31888;44.512;26.104;2023-07-22T04:00:14;7.38;;;2.78;;
46158;SDS011;31888;44.512;26.104;2023-07-22T04:02:38;6.93;;;2.85;;
46158;SDS011;31888;44.512;26.104;2023-07-22T04:05:02;4.88;;;2.47;;
46158;SDS011;31888;44.512;26.104;2023-07-22T04:07:26;6.47;;;2.33;;
46158;SDS011;31888;44.512;26.104;2023-07-22T04:09:50;6.43;;;2.40;;
46158;SDS011;31888;44.512;26.104;2023-07-22T04:12:15;6.03;;;2.60;;
46158;SDS011;31888;44.512;26.104;2023-07-22T04:14:39;4.85;;;2.08;;
46158;SDS011;31888;44.512;26.104;2023-07-22T04:17:03;5.68;;;2.13;;
46158;SDS011;31888;44.512;26.104;2023-07-22T04:19:27;9.52;;;2.72;;
46158;SDS011;31888;44.512;26.104;2023-07-22T04:21:52;5.10;;;2.67;;
46158;SDS011;31888;44.512;26.104;2023-07-22T04:24:16;4.50;;;2.47;;
46158;SDS011;31888;44.512;26.104;2023-07-22T04:26:41;7.18;;;2.38;;
46158;SDS011;31888;44.512;26.104;2023-07-22T04:29:08;7.57;;;2.47;;
46158;SDS011;31888;44.512;26.104;2023-07-22T04:31:33;5.50;;;2.17;;
46158;SDS011;31888;44.512;26.104;2023-07-22T04:33:57;5.32;;;2.40;;
46158;SDS011;31888;44.512;26.104;2023-07-22T04:36:21;4.20;;;1.92;;
46158;SDS011;31888;44.512;26.104;2023-07-22T04:38:45;6.72;;;2.15;;
46158;SDS011;31888;44.512;26.104;2023-07-22T04:41:09;5.82;;;1.90;;
46158;SDS011;31888;44.512;26.104;2023-07-22T04:43:33;5.95;;;2.10;;
46158;SDS011;31888;44.512;26.104;2023-07-22T04:45:58;4.57;;;2.10;;
46158;SDS011;31888;44.512;26.104;2023-07-22T04:48:22;3.72;;;2.00;;
46158;SDS011;31888;44.512;26.104;2023-07-22T04:50:46;8.40;;;2.00;;
46158;SDS011;31888;44.512;26.104;2023-07-22T04:53:10;9.50;;;2.72;;
46158;SDS011;31888;44.512;26.104;2023-07-22T04:55:35;8.63;;;2.20;;
46158;SDS011;31888;44.512;26.104;2023-07-22T04:57:59;5.75;;;2.55;;
46158;SDS011;31888;44.512;26.104;2023-07-22T05:00:25;6.70;;;2.47;;
46158;SDS011;31888;44.512;26.104;2023-07-22T05:02:52;7.45;;;2.65;;
46158;SDS011;31888;44.512;26.104;2023-07-22T05:05:18;6.80;;;2.85;;
46158;SDS011;31888;44.512;26.104;2023-07-22T05:07:43;6.20;;;2.20;;
46158;SDS011;31888;44.512;26.104;2023-07-22T05:10:07;6.82;;;2.85;;
46158;SDS011;31888;44.512;26.104;2023-07-22T05:12:34;3.50;;;2.33;;
46158;SDS011;31888;44.512;26.104;2023-07-22T05:14:58;7.72;;;2.50;;
46158;SDS011;31888;44.512;26.104;2023-07-22T05:17:22;6.68;;;2.83;;
46158;SDS011;31888;44.512;26.104;2023-07-22T05:19:49;9.40;;;2.88;;
46158;SDS011;31888;44.512;26.104;2023-07-22T05:22:12;4.35;;;2.17;;
46158;SDS011;31888;44.512;26.104;2023-07-22T05:24:36;4.63;;;2.40;;
46158;SDS011;31888;44.512;26.104;2023-07-22T05:27:00;6.07;;;2.42;;
46158;SDS011;31888;44.512;26.104;2023-07-22T05:29:30;7.25;;;2.53;;
46158;SDS011;31888;44.512;26.104;2023-07-22T05:31:54;9.32;;;2.17;;
46158;SDS011;31888;44.512;26.104;2023-07-22T05:34:18;4.05;;;1.92;;
46158;SDS011;31888;44.512;26.104;2023-07-22T05:36:43;5.07;;;1.95;;
46158;SDS011;31888;44.512;26.104;2023-07-22T05:39:07;5.07;;;1.75;;
46158;SDS011;31888;44.512;26.104;2023-07-22T05:41:32;6.30;;;2.53;;
46158;SDS011;31888;44.512;26.104;2023-07-22T05:43:56;8.25;;;2.67;;
46158;SDS011;31888;44.512;26.104;2023-07-22T05:46:19;4.85;;;2.10;;
46158;SDS011;31888;44.512;26.104;2023-07-22T05:48:43;7.93;;;2.25;;
46158;SDS011;31888;44.512;26.104;2023-07-22T05:51:07;8.73;;;2.58;;
46158;SDS011;31888;44.512;26.104;2023-07-22T05:53:33;3.88;;;1.80;;
46158;SDS011;31888;44.512;26.104;2023-07-22T05:55:57;5.53;;;2.30;;
46158;SDS011;31888;44.512;26.104;2023-07-22T05:58:21;4.93;;;2.13;;
46158;SDS011;31888;44.512;26.104;2023-07-22T06:00:45;7.53;;;2.38;;
46158;SDS011;31888;44.512;26.104;2023-07-22T06:03:09;7.53;;;2.20;;
46158;SDS011;31888;44.512;26.104;2023-07-22T06:05:33;6.15;;;1.95;;
46158;SDS011;31888;44.512;26.104;2023-07-22T06:07:56;4.13;;;1.88;;
46158;SDS011;31888;44.512;26.104;2023-07-22T06:10:22;6.03;;;1.80;;
46158;SDS011;31888;44.512;26.104;2023-07-22T06:12:46;7.10;;;1.98;;
46158;SDS011;31888;44.512;26.104;2023-07-22T06:15:10;6.00;;;2.17;;
46158;SDS011;31888;44.512;26.104;2023-07-22T06:17:34;8.30;;;2.15;;
46158;SDS011;31888;44.512;26.104;2023-07-22T06:19:58;3.88;;;1.73;;
46158;SDS011;31888;44.512;26.104;2023-07-22T06:22:22;5.97;;;1.80;;
46158;SDS011;31888;44.512;26.104;2023-07-22T06:24:46;8.45;;;2.13;;
46158;SDS011;31888;44.512;26.104;2023-07-22T06:27:11;5.45;;;1.70;;
46158;SDS011;31888;44.512;26.104;2023-07-22T06:29:35;6.18;;;1.90;;
46158;SDS011;31888;44.512;26.104;2023-07-22T06:31:58;5.38;;;1.73;;
46158;SDS011;31888;44.512;26.104;2023-07-22T06:34:22;4.32;;;1.63;;
46158;SDS011;31888;44.512;26.104;2023-07-22T06:36:46;7.95;;;2.05;;
46158;SDS011;31888;44.512;26.104;2023-07-22T06:39:10;6.75;;;1.90;;
46158;SDS011;31888;44.512;26.104;2023-07-22T06:41:34;8.73;;;2.38;;
46158;SDS011;31888;44.512;26.104;2023-07-22T06:44:01;6.40;;;2.05;;
46158;SDS011;31888;44.512;26.104;2023-07-22T06:46:25;4.22;;;2.50;;
46158;SDS011;31888;44.512;26.104;2023-07-22T06:48:50;4.95;;;2.05;;
46158;SDS011;31888;44.512;26.104;2023-07-22T06:51:13;6.82;;;2.60;;
46158;SDS011;31888;44.512;26.104;2023-07-22T06:53:37;3.65;;;2.17;;
46158;SDS011;31888;44.512;26.104;2023-07-22T06:56:01;5.85;;;2.10;;
46158;SDS011;31888;44.512;26.104;2023-07-22T06:58:25;4.65;;;2.55;;
46158;SDS011;31888;44.512;26.104;2023-07-22T07:00:53;4.57;;;2.20;;
46158;SDS011;31888;44.512;26.104;2023-07-22T07:03:17;6.63;;;2.03;;
46158;SDS011;31888;44.512;26.104;2023-07-22T07:05:43;5.32;;;2.47;;
46158;SDS011;31888;44.512;26.104;2023-07-22T07:08:08;6.13;;;1.95;;
46158;SDS011;31888;44.512;26.104;2023-07-22T07:10:36;8.95;;;2.47;;
46158;SDS011;31888;44.512;26.104;2023-07-22T07:13:01;4.90;;;2.17;;
46158;SDS011;31888;44.512;26.104;2023-07-22T07:15:24;6.45;;;2.40;;
46158;SDS011;31888;44.512;26.104;2023-07-22T07:17:50;4.95;;;2.30;;
46158;SDS011;31888;44.512;26.104;2023-07-22T07:20:14;5.20;;;2.30;;
46158;SDS011;31888;44.512;26.104;2023-07-22T07:22:37;5.30;;;2.17;;
46158;SDS011;31888;44.512;26.104;2023-07-22T07:25:01;6.03;;;1.80;;
46158;SDS011;31888;44.512;26.104;2023-07-22T07:27:26;5.10;;;2.10;;
46158;SDS011;31888;44.512;26.104;2023-07-22T07:29:50;6.20;;;1.92;;
46158;SDS011;31888;44.512;26.104;2023-07-22T07:32:15;9.30;;;2.13;;
46158;SDS011;31888;44.512;26.104;2023-07-22T07:34:43;6.97;;;2.13;;
46158;SDS011;31888;44.512;26.104;2023-07-22T07:37:07;4.18;;;1.95;;
46158;SDS011;31888;44.512;26.104;2023-07-22T07:39:31;3.85;;;2.45;;
46158;SDS011;31888;44.512;26.104;2023-07-22T07:41:55;7.57;;;2.47;;
46158;SDS011;31888;44.512;26.104;2023-07-22T07:44:19;3.47;;;1.92;;
46158;SDS011;31888;44.512;26.104;2023-07-22T07:46:43;5.28;;;1.98;;
46158;SDS011;31888;44.512;26.104;2023-07-22T07:49:07;4.00;;;2.15;;
46158;SDS011;31888;44.512;26.104;2023-07-22T07:51:32;3.50;;;2.20;;
46158;SDS011;31888;44.512;26.104;2023-07-22T07:53:56;4.53;;;2.38;;
46158;SDS011;31888;44.512;26.104;2023-07-22T07:56:21;3.13;;;1.92;;
46158;SDS011;31888;44.512;26.104;2023-07-22T07:58:46;7.38;;;2.17;;
46158;SDS011;31888;44.512;26.104;2023-07-22T08:01:12;4.78;;;1.90;;
46158;SDS011;31888;44.512;26.104;2023-07-22T08:03:36;6.43;;;1.98;;
46158;SDS011;31888;44.512;26.104;2023-07-22T08:06:02;8.15;;;2.35;;
46158;SDS011;31888;44.512;26.104;2023-07-22T08:08:27;4.75;;;1.92;;
46158;SDS011;31888;44.512;26.104;2023-07-22T08:10:58;5.50;;;2.22;;
46158;SDS011;31888;44.512;26.104;2023-07-22T08:13:22;7.68;;;2.10;;
46158;SDS011;31888;44.512;26.104;2023-07-22T08:15:46;3.60;;;1.90;;
46158;SDS011;31888;44.512;26.104;2023-07-22T08:18:10;5.78;;;2.00;;
46158;SDS011;31888;44.512;26.104;2023-07-22T08:20:33;5.18;;;2.10;;
46158;SDS011;31888;44.512;26.104;2023-07-22T08:22:58;3.85;;;1.88;;
46158;SDS011;31888;44.512;26.104;2023-07-22T08:25:23;6.22;;;2.45;;
46158;SDS011;31888;44.512;26.104;2023-07-22T08:27:47;10.07;;;2.40;;
46158;SDS011;31888;44.512;26.104;2023-07-22T08:30:11;4.78;;;2.33;;
46158;SDS011;31888;44.512;26.104;2023-07-22T08:32:34;6.90;;;2.60;;
46158;SDS011;31888;44.512;26.104;2023-07-22T08:34:58;11.13;;;3.03;;
46158;SDS011;31888;44.512;26.104;2023-07-22T08:37:22;6.00;;;2.38;;
46158;SDS011;31888;44.512;26.104;2023-07-22T08:39:46;8.32;;;3.00;;
46158;SDS011;31888;44.512;26.104;2023-07-22T08:42:11;7.43;;;2.33;;
46158;SDS011;31888;44.512;26.104;2023-07-22T08:44:38;6.15;;;2.72;;
46158;SDS011;31888;44.512;26.104;2023-07-22T08:47:05;5.78;;;2.90;;
46158;SDS011;31888;44.512;26.104;2023-07-22T08:49:34;8.85;;;2.95;;
46158;SDS011;31888;44.512;26.104;2023-07-22T08:51:58;9.38;;;2.80;;
46158;SDS011;31888;44.512;26.104;2023-07-22T08:54:23;6.07;;;2.85;;
46158;SDS011;31888;44.512;26.104;2023-07-22T08:56:47;10.18;;;3.10;;
46158;SDS011;31888;44.512;26.104;2023-07-22T08:59:13;6.55;;;2.70;;
46158;SDS011;31888;44.512;26.104;2023-07-22T09:01:37;96.47;;;9.82;;
46158;SDS011;31888;44.512;26.104;2023-07-22T09:04:02;13.43;;;3.20;;
46158;SDS011;31888;44.512;26.104;2023-07-22T09:06:26;10.45;;;3.33;;
46158;SDS011;31888;44.512;26.104;2023-07-22T09:08:51;7.15;;;2.70;;
46158;SDS011;31888;44.512;26.104;2023-07-22T09:11:15;7.47;;;2.63;;
46158;SDS011;31888;44.512;26.104;2023-07-22T09:13:39;8.60;;;3.05;;
46158;SDS011;31888;44.512;26.104;2023-07-22T09:16:06;8.45;;;2.80;;
46158;SDS011;31888;44.512;26.104;2023-07-22T09:18:32;7.10;;;3.03;;
46158;SDS011;31888;44.512;26.104;2023-07-22T09:20:56;9.98;;;3.35;;
46158;SDS011;31888;44.512;26.104;2023-07-22T09:23:31;7.45;;;2.70;;
46158;SDS011;31888;44.512;26.104;2023-07-22T09:25:55;5.57;;;2.97;;
46158;SDS011;31888;44.512;26.104;2023-07-22T09:28:33;7.65;;;3.55;;
46158;SDS011;31888;44.512;26.104;2023-07-22T09:33:35;12.00;;;3.35;;
46158;SDS011;31888;44.512;26.104;2023-07-22T09:36:02;8.52;;;2.80;;
46158;SDS011;31888;44.512;26.104;2023-07-22T09:38:28;7.35;;;3.60;;
46158;SDS011;31888;44.512;26.104;2023-07-22T09:40:51;8.15;;;2.75;;
46158;SDS011;31888;44.512;26.104;2023-07-22T09:43:16;6.05;;;2.80;;
46158;SDS011;31888;44.512;26.104;2023-07-22T09:45:39;5.32;;;3.10;;
46158;SDS011;31888;44.512;26.104;2023-07-22T09:48:05;5.93;;;3.17;;
46158;SDS011;31888;44.512;26.104;2023-07-22T09:50:29;9.68;;;3.53;;
46158;SDS011;31888;44.512;26.104;2023-07-22T09:52:54;7.80;;;3.45;;
46158;SDS011;31888;44.512;26.104;2023-07-22T09:55:20;7.93;;;3.05;;
46158;SDS011;31888;44.512;26.104;2023-07-22T09:57:45;6.28;;;2.90;;
46158;SDS011;31888;44.512;26.104;2023-07-22T10:00:10;10.18;;;3.42;;
46158;SDS011;31888;44.512;26.104;2023-07-22T10:02:36;8.00;;;3.50;;
46158;SDS011;31888;44.512;26.104;2023-07-22T10:05:04;11.55;;;3.42;;
46158;SDS011;31888;44.512;26.104;2023-07-22T10:07:29;8.88;;;3.67;;
46158;SDS011;31888;44.512;26.104;2023-07-22T10:09:57;7.13;;;3.60;;
46158;SDS011;31888;44.512;26.104;2023-07-22T10:12:21;12.40;;;3.95;;
46158;SDS011;31888;44.512;26.104;2023-07-22T10:14:46;6.90;;;3.22;;
46158;SDS011;31888;44.512;26.104;2023-07-22T10:17:11;7.93;;;3.63;;
46158;SDS011;31888;44.512;26.104;2023-07-22T10:19:36;10.23;;;3.55;;
46158;SDS011;31888;44.512;26.104;2023-07-22T10:22:02;11.60;;;4.00;;
46158;SDS011;31888;44.512;26.104;2023-07-22T10:24:28;7.93;;;3.75;;
46158;SDS011;31888;44.512;26.104;2023-07-22T10:26:53;7.28;;;3.67;;
46158;SDS011;31888;44.512;26.104;2023-07-22T10:29:17;7.90;;;3.83;;
46158;SDS011;31888;44.512;26.104;2023-07-22T10:31:43;10.82;;;3.58;;
46158;SDS011;31888;44.512;26.104;2023-07-22T10:34:07;9.32;;;3.28;;
46158;SDS011;31888;44.512;26.104;2023-07-22T10:36:31;8.40;;;3.25;;
46158;SDS011;31888;44.512;26.104;2023-07-22T10:38:57;5.97;;;3.17;;
46158;SDS011;31888;44.512;26.104;2023-07-22T10:41:25;10.75;;;3.58;;
46158;SDS011;31888;44.512;26.104;2023-07-22T10:43:53;14.43;;;3.88;;
46158;SDS011;31888;44.512;26.104;2023-07-22T10:46:19;7.20;;;3.88;;
46158;SDS011;31888;44.512;26.104;2023-07-22T10:48:58;11.75;;;4.10;;
46158;SDS011;31888;44.512;26.104;2023-07-22T10:51:34;6.53;;;3.63;;
46158;SDS011;31888;44.512;26.104;2023-07-22T10:54:00;8.07;;;2.92;;
46158;SDS011;31888;44.512;26.104;2023-07-22T10:56:24;9.00;;;4.30;;
46158;SDS011;31888;44.512;26.104;2023-07-22T10:58:58;11.77;;;3.40;;
46158;SDS011;31888;44.512;26.104;2023-07-22T11:01:24;9.77;;;3.22;;
46158;SDS011;31888;44.512;26.104;2023-07-22T11:04:07;11.27;;;3.58;;
46158;SDS011;31888;44.512;26.104;2023-07-22T11:06:33;8.18;;;3.30;;
46158;SDS011;31888;44.512;26.104;2023-07-22T11:08:58;9.90;;;3.58;;
46158;SDS011;31888;44.512;26.104;2023-07-22T11:11:28;8.13;;;3.60;;
46158;SDS011;31888;44.512;26.104;2023-07-22T11:14:11;6.47;;;3.55;;
46158;SDS011;31888;44.512;26.104;2023-07-22T11:16:36;8.25;;;3.80;;
46158;SDS011;31888;44.512;26.104;2023-07-22T11:19:01;10.90;;;3.88;;
46158;SDS011;31888;44.512;26.104;2023-07-22T11:21:24;10.80;;;3.17;;
46158;SDS011;31888;44.512;26.104;2023-07-22T11:23:48;7.40;;;3.80;;
46158;SDS011;31888;44.512;26.104;2023-07-22T11:26:12;8.32;;;3.55;;
46158;SDS011;31888;44.512;26.104;2023-07-22T11:28:37;9.27;;;3.78;;
46158;SDS011;31888;44.512;26.104;2023-07-22T11:31:03;9.65;;;3.35;;
46158;SDS011;31888;44.512;26.104;2023-07-22T11:33:37;9.50;;;3.80;;
46158;SDS011;31888;44.512;26.104;2023-07-22T11:36:02;9.65;;;3.88;;
46158;SDS011;31888;44.512;26.104;2023-07-22T11:38:26;7.15;;;3.50;;
46158;SDS011;31888;44.512;26.104;2023-07-22T11:40:51;8.75;;;3.42;;
46158;SDS011;31888;44.512;26.104;2023-07-22T11:43:15;6.50;;;3.55;;
46158;SDS011;31888;44.512;26.104;2023-07-22T11:45:43;6.75;;;3.10;;
46158;SDS011;31888;44.512;26.104;2023-07-22T11:48:09;10.75;;;3.47;;
46158;SDS011;31888;44.512;26.104;2023-07-22T11:50:33;11.38;;;3.50;;
46158;SDS011;31888;44.512;26.104;2023-07-22T11:52:57;9.07;;;3.55;;
46158;SDS011;31888;44.512;26.104;2023-07-22T11:55:22;11.20;;;3.22;;
46158;SDS011;31888;44.512;26.104;2023-07-22T11:57:57;17.65;;;4.00;;
46158;SDS011;31888;44.512;26.104;2023-07-22T12:00:21;11.13;;;3.38;;
46158;SDS011;31888;44.512;26.104;2023-07-22T12:02:46;9.45;;;3.50;;
46158;SDS011;31888;44.512;26.104;2023-07-22T12:05:10;9.77;;;3.58;;
46158;SDS011;31888;44.512;26.104;2023-07-22T12:07:35;11.25;;;4.07;;
46158;SDS011;31888;44.512;26.104;2023-07-22T12:10:01;5.22;;;2.85;;
46158;SDS011;31888;44.512;26.104;2023-07-22T12:12:33;8.68;;;2.90;;
46158;SDS011;31888;44.512;26.104;2023-07-22T12:15:00;9.65;;;3.38;;
46158;SDS011;31888;44.512;26.104;2023-07-22T12:17:26;7.53;;;3.20;;
46158;SDS011;31888;44.512;26.104;2023-07-22T12:19:54;11.07;;;3.28;;
46158;SDS011;31888;44.512;26.104;2023-07-22T12:22:20;7.57;;;3.05;;
46158;SDS011;31888;44.512;26.104;2023-07-22T12:24:46;7.13;;;3.20;;
46158;SDS011;31888;44.512;26.104;2023-07-22T12:27:10;8.23;;;3.15;;
46158;SDS011;31888;44.512;26.104;2023-07-22T12:29:34;9.02;;;3.55;;
46158;SDS011;31888;44.512;26.104;2023-07-22T12:31:58;8.00;;;3.13;;
46158;SDS011;31888;44.512;26.104;2023-07-22T12:34:22;9.32;;;3.95;;
46158;SDS011;31888;44.512;26.104;2023-07-22T12:36:47;7.63;;;3.00;;
46158;SDS011;31888;44.512;26.104;2023-07-22T12:39:11;8.70;;;3.70;;
46158;SDS011;31888;44.512;26.104;2023-07-22T12:41:35;11.55;;;3.20;;
46158;SDS011;31888;44.512;26.104;2023-07-22T12:43:58;9.35;;;3.83;;
46158;SDS011;31888;44.512;26.104;2023-07-22T12:46:22;9.52;;;3.25;;
46158;SDS011;31888;44.512;26.104;2023-07-22T12:48:46;9.48;;;3.47;;
46158;SDS011;31888;44.512;26.104;2023-07-22T12:51:10;8.57;;;3.70;;
46158;SDS011;31888;44.512;26.104;2023-07-22T12:53:36;10.45;;;3.53;;
46158;SDS011;31888;44.512;26.104;2023-07-22T12:56:00;9.38;;;3.72;;
46158;SDS011;31888;44.512;26.104;2023-07-22T12:58:25;7.43;;;3.22;;
46158;SDS011;31888;44.512;26.104;2023-07-22T13:00:49;11.52;;;4.15;;
46158;SDS011;31888;44.512;26.104;2023-07-22T13:03:12;11.90;;;4.10;;
46158;SDS011;31888;44.512;26.104;2023-07-22T13:05:36;14.48;;;4.55;;
46158;SDS011;31888;44.512;26.104;2023-07-22T13:08:00;7.07;;;3.95;;
46158;SDS011;31888;44.512;26.104;2023-07-22T13:10:25;9.77;;;3.60;;
46158;SDS011;31888;44.512;26.104;2023-07-22T13:15:17;11.05;;;4.07;;
46158;SDS011;31888;44.512;26.104;2023-07-22T13:17:41;13.95;;;3.63;;
46158;SDS011;31888;44.512;26.104;2023-07-22T13:20:05;12.57;;;4.03;;
46158;SDS011;31888;44.512;26.104;2023-07-22T13:22:31;8.27;;;3.75;;
46158;SDS011;31888;44.512;26.104;2023-07-22T13:24:55;12.50;;;4.03;;
46158;SDS011;31888;44.512;26.104;2023-07-22T13:27:20;13.77;;;3.63;;
46158;SDS011;31888;44.512;26.104;2023-07-22T13:29:44;10.63;;;3.40;;
46158;SDS011;31888;44.512;26.104;2023-07-22T13:32:08;14.85;;;4.10;;
46158;SDS011;31888;44.512;26.104;2023-07-22T13:34:32;14.20;;;4.07;;
46158;SDS011;31888;44.512;26.104;2023-07-22T13:36:56;9.98;;;3.33;;
46158;SDS011;31888;44.512;26.104;2023-07-22T13:39:20;8.48;;;3.63;;
46158;SDS011;31888;44.512;26.104;2023-07-22T13:41:43;8.30;;;3.38;;
46158;SDS011;31888;44.512;26.104;2023-07-22T13:44:09;10.68;;;3.90;;
46158;SDS011;31888;44.512;26.104;2023-07-22T13:46:32;8.65;;;3.15;;
46158;SDS011;31888;44.512;26.104;2023-07-22T13:48:56;9.30;;;3.60;;
46158;SDS011;31888;44.512;26.104;2023-07-22T13:51:20;9.40;;;3.70;;
46158;SDS011;31888;44.512;26.104;2023-07-22T13:53:44;8.98;;;3.28;;
46158;SDS011;31888;44.512;26.104;2023-07-22T13:56:08;7.88;;;2.97;;
46158;SDS011;31888;44.512;26.104;2023-07-22T13:58:31;7.70;;;3.45;;
46158;SDS011;31888;44.512;26.104;2023-07-22T14:00:57;6.57;;;3.53;;
46158;SDS011;31888;44.512;26.104;2023-07-22T14:03:23;10.20;;;3.53;;
46158;SDS011;31888;44.512;26.104;2023-07-22T14:05:47;11.32;;;3.30;;
46158;SDS011;31888;44.512;26.104;2023-07-22T14:08:10;9.95;;;4.18;;
46158;SDS011;31888;44.512;26.104;2023-07-22T14:10:34;6.90;;;3.33;;
46158;SDS011;31888;44.512;26.104;2023-07-22T14:12:58;11.88;;;3.40;;
46158;SDS011;31888;44.512;26.104;2023-07-22T14:15:22;10.18;;;3.20;;
46158;SDS011;31888;44.512;26.104;2023-07-22T14:17:47;6.97;;;2.92;;
46158;SDS011;31888;44.512;26.104;2023-07-22T14:20:11;9.02;;;3.00;;
46158;SDS011;31888;44.512;26.104;2023-07-22T14:22:36;10.00;;;3.30;;